sensor_id;sensor_type;location;lat;lon;timestamp;P1;durP1;ratioP1;P2;durP2;ratioP2
21833;SDS011;11079;51.092;3.458;2023-09-19T00:00:37;7.03;;;2.30;;
21833;SDS011;11079;51.092;3.458;2023-09-19T00:03:03;8.48;;;2.03;;
21833;SDS011;11079;51.092;3.458;2023-09-19T00:05:33;10.40;;;1.80;;
21833;SDS011;11079;51.092;3.458;2023-09-19T00:08:00;10.15;;;3.40;;
21833;SDS011;11079;51.092;3.458;2023-09-19T00:10:29;4.80;;;1.75;;
21833;SDS011;11079;51.092;3.458;2023-09-19T00:12:59;9.40;;;2.35;;
21833;SDS011;11079;51.092;3.458;2023-09-19T00:15:30;13.80;;;3.08;;
21833;SDS011;11079;51.092;3.458;2023-09-19T00:18:02;6.32;;;1.77;;
21833;SDS011;11079;51.092;3.458;2023-09-19T00:20:29;11.02;;;1.98;;
21833;SDS011;11079;51.092;3.458;2023-09-19T00:22:55;8.52;;;2.20;;
21833;SDS011;11079;51.092;3.458;2023-09-19T00:25:21;7.35;;;1.90;;
21833;SDS011;11079;51.092;3.458;2023-09-19T00:27:47;8.27;;;2.08;;
21833;SDS011;11079;51.092;3.458;2023-09-19T00:30:14;6.00;;;1.90;;
21833;SDS011;11079;51.092;3.458;2023-09-19T00:32:46;8.43;;;2.17;;
21833;SDS011;11079;51.092;3.458;2023-09-19T00:35:16;7.70;;;2.00;;
21833;SDS011;11079;51.092;3.458;2023-09-19T00:37:42;10.13;;;2.05;;
21833;SDS011;11079;51.092;3.458;2023-09-19T00:40:08;8.60;;;1.92;;
21833;SDS011;11079;51.092;3.458;2023-09-19T00:42:41;11.40;;;2.40;;
21833;SDS011;11079;51.092;3.458;2023-09-19T00:45:07;10.88;;;3.03;;
21833;SDS011;11079;51.092;3.458;2023-09-19T00:47:49;9.88;;;2.30;;
21833;SDS011;11079;51.092;3.458;2023-09-19T00:50:17;8.27;;;2.50;;
21833;SDS011;11079;51.092;3.458;2023-09-19T00:52:44;9.98;;;2.33;;
21833;SDS011;11079;51.092;3.458;2023-09-19T00:55:12;9.18;;;1.90;;
21833;SDS011;11079;51.092;3.458;2023-09-19T00:57:39;6.57;;;2.28;;
21833;SDS011;11079;51.092;3.458;2023-09-19T01:00:06;7.28;;;2.33;;
21833;SDS011;11079;51.092;3.458;2023-09-19T01:02:34;7.65;;;2.13;;
21833;SDS011;11079;51.092;3.458;2023-09-19T01:05:00;6.35;;;2.50;;
21833;SDS011;11079;51.092;3.458;2023-09-19T01:07:29;9.50;;;2.10;;
21833;SDS011;11079;51.092;3.458;2023-09-19T01:10:00;7.75;;;2.53;;
21833;SDS011;11079;51.092;3.458;2023-09-19T01:12:33;7.65;;;2.20;;
21833;SDS011;11079;51.092;3.458;2023-09-19T01:31:57;9.18;;;2.42;;
21833;SDS011;11079;51.092;3.458;2023-09-19T01:34:42;12.88;;;2.53;;
21833;SDS011;11079;51.092;3.458;2023-09-19T01:37:29;15.85;;;3.28;;
21833;SDS011;11079;51.092;3.458;2023-09-19T01:40:04;9.30;;;2.97;;
21833;SDS011;11079;51.092;3.458;2023-09-19T01:48:24;8.55;;;3.50;;
21833;SDS011;11079;51.092;3.458;2023-09-19T01:51:08;17.23;;;3.10;;
21833;SDS011;11079;51.092;3.458;2023-09-19T01:53:40;8.02;;;2.75;;
21833;SDS011;11079;51.092;3.458;2023-09-19T01:59:10;10.23;;;2.85;;
21833;SDS011;11079;51.092;3.458;2023-09-19T02:01:45;15.52;;;2.97;;
21833;SDS011;11079;51.092;3.458;2023-09-19T02:04:11;12.90;;;2.88;;
21833;SDS011;11079;51.092;3.458;2023-09-19T02:06:41;8.68;;;2.45;;
21833;SDS011;11079;51.092;3.458;2023-09-19T02:09:07;9.40;;;2.75;;
21833;SDS011;11079;51.092;3.458;2023-09-19T02:11:34;9.32;;;3.22;;
21833;SDS011;11079;51.092;3.458;2023-09-19T02:14:01;12.88;;;3.63;;
21833;SDS011;11079;51.092;3.458;2023-09-19T02:16:27;11.30;;;3.55;;
21833;SDS011;11079;51.092;3.458;2023-09-19T02:18:53;10.98;;;3.33;;
21833;SDS011;11079;51.092;3.458;2023-09-19T02:21:19;9.05;;;2.58;;
21833;SDS011;11079;51.092;3.458;2023-09-19T02:23:46;14.90;;;3.28;;
21833;SDS011;11079;51.092;3.458;2023-09-19T02:26:12;19.30;;;3.88;;
21833;SDS011;11079;51.092;3.458;2023-09-19T02:28:39;11.23;;;2.85;;
21833;SDS011;11079;51.092;3.458;2023-09-19T02:31:04;10.32;;;2.65;;
21833;SDS011;11079;51.092;3.458;2023-09-19T02:33:30;14.60;;;3.75;;
21833;SDS011;11079;51.092;3.458;2023-09-19T02:35:59;16.83;;;3.92;;
21833;SDS011;11079;51.092;3.458;2023-09-19T02:38:25;13.40;;;2.78;;
21833;SDS011;11079;51.092;3.458;2023-09-19T02:40:52;13.35;;;3.33;;
21833;SDS011;11079;51.092;3.458;2023-09-19T02:43:18;13.25;;;2.67;;
21833;SDS011;11079;51.092;3.458;2023-09-19T02:45:47;10.50;;;2.55;;
21833;SDS011;11079;51.092;3.458;2023-09-19T02:48:15;10.82;;;2.97;;
21833;SDS011;11079;51.092;3.458;2023-09-19T02:50:41;8.02;;;2.05;;
21833;SDS011;11079;51.092;3.458;2023-09-19T02:53:07;10.52;;;2.67;;
21833;SDS011;11079;51.092;3.458;2023-09-19T02:55:35;14.95;;;2.83;;
21833;SDS011;11079;51.092;3.458;2023-09-19T02:58:02;11.70;;;3.05;;
21833;SDS011;11079;51.092;3.458;2023-09-19T03:00:30;7.07;;;2.60;;
21833;SDS011;11079;51.092;3.458;2023-09-19T03:02:56;11.10;;;2.28;;
21833;SDS011;11079;51.092;3.458;2023-09-19T03:05:22;9.02;;;2.85;;
21833;SDS011;11079;51.092;3.458;2023-09-19T03:07:48;8.65;;;3.25;;
21833;SDS011;11079;51.092;3.458;2023-09-19T03:10:16;11.70;;;4.03;;
21833;SDS011;11079;51.092;3.458;2023-09-19T03:12:42;13.32;;;3.15;;
21833;SDS011;11079;51.092;3.458;2023-09-19T03:15:08;11.48;;;2.80;;
21833;SDS011;11079;51.092;3.458;2023-09-19T03:17:35;14.68;;;2.88;;
21833;SDS011;11079;51.092;3.458;2023-09-19T03:20:02;13.60;;;3.00;;
21833;SDS011;11079;51.092;3.458;2023-09-19T03:22:35;13.50;;;2.97;;
21833;SDS011;11079;51.092;3.458;2023-09-19T03:25:00;10.38;;;3.15;;
21833;SDS011;11079;51.092;3.458;2023-09-19T03:27:26;10.88;;;2.85;;
21833;SDS011;11079;51.092;3.458;2023-09-19T03:29:52;11.00;;;2.53;;
21833;SDS011;11079;51.092;3.458;2023-09-19T03:32:18;11.50;;;2.53;;
21833;SDS011;11079;51.092;3.458;2023-09-19T03:34:44;14.73;;;4.25;;
21833;SDS011;11079;51.092;3.458;2023-09-19T03:37:10;11.93;;;2.47;;
21833;SDS011;11079;51.092;3.458;2023-09-19T03:39:36;15.95;;;3.47;;
21833;SDS011;11079;51.092;3.458;2023-09-19T03:42:02;8.68;;;2.42;;
21833;SDS011;11079;51.092;3.458;2023-09-19T03:44:29;11.10;;;3.17;;
21833;SDS011;11079;51.092;3.458;2023-09-19T03:46:55;15.05;;;2.97;;
21833;SDS011;11079;51.092;3.458;2023-09-19T03:49:21;9.15;;;2.75;;
21833;SDS011;11079;51.092;3.458;2023-09-19T03:51:47;11.48;;;2.75;;
21833;SDS011;11079;51.092;3.458;2023-09-19T03:54:12;9.77;;;2.40;;
21833;SDS011;11079;51.092;3.458;2023-09-19T03:56:38;10.32;;;2.90;;
21833;SDS011;11079;51.092;3.458;2023-09-19T03:59:04;12.52;;;2.85;;
21833;SDS011;11079;51.092;3.458;2023-09-19T04:01:29;9.85;;;3.25;;
21833;SDS011;11079;51.092;3.458;2023-09-19T04:03:58;15.90;;;3.58;;
21833;SDS011;11079;51.092;3.458;2023-09-19T04:06:24;11.05;;;2.85;;
21833;SDS011;11079;51.092;3.458;2023-09-19T04:08:49;10.00;;;3.00;;
21833;SDS011;11079;51.092;3.458;2023-09-19T04:11:15;13.18;;;3.10;;
21833;SDS011;11079;51.092;3.458;2023-09-19T04:13:41;14.80;;;3.30;;
21833;SDS011;11079;51.092;3.458;2023-09-19T04:16:07;13.50;;;3.72;;
21833;SDS011;11079;51.092;3.458;2023-09-19T04:18:32;9.43;;;3.50;;
21833;SDS011;11079;51.092;3.458;2023-09-19T04:21:02;9.85;;;3.47;;
21833;SDS011;11079;51.092;3.458;2023-09-19T04:23:29;10.38;;;2.83;;
21833;SDS011;11079;51.092;3.458;2023-09-19T04:25:55;10.98;;;2.95;;
21833;SDS011;11079;51.092;3.458;2023-09-19T04:28:22;12.85;;;3.70;;
21833;SDS011;11079;51.092;3.458;2023-09-19T04:30:49;18.15;;;4.90;;
21833;SDS011;11079;51.092;3.458;2023-09-19T04:33:15;11.43;;;2.67;;
21833;SDS011;11079;51.092;3.458;2023-09-19T04:35:40;13.95;;;2.95;;
21833;SDS011;11079;51.092;3.458;2023-09-19T04:38:07;17.55;;;3.20;;
21833;SDS011;11079;51.092;3.458;2023-09-19T04:40:33;12.48;;;2.63;;
21833;SDS011;11079;51.092;3.458;2023-09-19T04:42:59;14.10;;;3.75;;
21833;SDS011;11079;51.092;3.458;2023-09-19T04:45:25;17.35;;;3.80;;
21833;SDS011;11079;51.092;3.458;2023-09-19T04:47:52;13.30;;;3.08;;
21833;SDS011;11079;51.092;3.458;2023-09-19T04:50:18;12.13;;;2.50;;
21833;SDS011;11079;51.092;3.458;2023-09-19T04:52:44;11.95;;;3.22;;
21833;SDS011;11079;51.092;3.458;2023-09-19T04:55:13;17.40;;;3.00;;
21833;SDS011;11079;51.092;3.458;2023-09-19T04:57:49;8.45;;;2.40;;
21833;SDS011;11079;51.092;3.458;2023-09-19T05:00:16;16.50;;;3.13;;
21833;SDS011;11079;51.092;3.458;2023-09-19T05:02:44;9.32;;;2.92;;
21833;SDS011;11079;51.092;3.458;2023-09-19T05:05:10;16.08;;;2.60;;
21833;SDS011;11079;51.092;3.458;2023-09-19T05:07:42;12.38;;;3.45;;
21833;SDS011;11079;51.092;3.458;2023-09-19T05:10:09;13.68;;;3.30;;
21833;SDS011;11079;51.092;3.458;2023-09-19T05:12:38;12.50;;;2.80;;
21833;SDS011;11079;51.092;3.458;2023-09-19T05:15:04;10.98;;;2.90;;
21833;SDS011;11079;51.092;3.458;2023-09-19T05:17:32;10.60;;;3.15;;
21833;SDS011;11079;51.092;3.458;2023-09-19T05:19:58;14.98;;;3.13;;
21833;SDS011;11079;51.092;3.458;2023-09-19T05:22:30;12.77;;;2.55;;
21833;SDS011;11079;51.092;3.458;2023-09-19T05:24:57;10.75;;;2.83;;
21833;SDS011;11079;51.092;3.458;2023-09-19T05:27:23;9.55;;;2.70;;
21833;SDS011;11079;51.092;3.458;2023-09-19T05:29:49;12.23;;;2.67;;
21833;SDS011;11079;51.092;3.458;2023-09-19T05:32:18;18.98;;;3.70;;
21833;SDS011;11079;51.092;3.458;2023-09-19T05:34:44;12.50;;;3.78;;
21833;SDS011;11079;51.092;3.458;2023-09-19T05:37:10;10.73;;;3.08;;
21833;SDS011;11079;51.092;3.458;2023-09-19T05:39:36;11.25;;;2.90;;
21833;SDS011;11079;51.092;3.458;2023-09-19T05:42:02;10.70;;;2.60;;
21833;SDS011;11079;51.092;3.458;2023-09-19T05:44:28;10.52;;;3.05;;
21833;SDS011;11079;51.092;3.458;2023-09-19T05:46:54;11.75;;;3.75;;
21833;SDS011;11079;51.092;3.458;2023-09-19T05:49:21;10.32;;;2.67;;
21833;SDS011;11079;51.092;3.458;2023-09-19T05:51:49;9.50;;;2.45;;
21833;SDS011;11079;51.092;3.458;2023-09-19T05:54:15;12.23;;;3.10;;
21833;SDS011;11079;51.092;3.458;2023-09-19T05:56:45;12.20;;;2.65;;
21833;SDS011;11079;51.092;3.458;2023-09-19T05:59:12;12.70;;;3.08;;
21833;SDS011;11079;51.092;3.458;2023-09-19T06:01:40;10.18;;;2.60;;
21833;SDS011;11079;51.092;3.458;2023-09-19T06:04:07;8.80;;;2.40;;
21833;SDS011;11079;51.092;3.458;2023-09-19T06:06:33;14.82;;;3.17;;
21833;SDS011;11079;51.092;3.458;2023-09-19T06:09:01;11.38;;;2.78;;
21833;SDS011;11079;51.092;3.458;2023-09-19T06:11:30;13.93;;;3.03;;
21833;SDS011;11079;51.092;3.458;2023-09-19T06:13:57;11.75;;;2.53;;
21833;SDS011;11079;51.092;3.458;2023-09-19T06:16:25;20.10;;;4.18;;
21833;SDS011;11079;51.092;3.458;2023-09-19T06:18:51;9.75;;;2.70;;
21833;SDS011;11079;51.092;3.458;2023-09-19T06:21:18;13.90;;;2.55;;
21833;SDS011;11079;51.092;3.458;2023-09-19T06:23:43;11.50;;;2.58;;
21833;SDS011;11079;51.092;3.458;2023-09-19T06:26:09;9.63;;;2.42;;
21833;SDS011;11079;51.092;3.458;2023-09-19T06:28:35;14.30;;;2.90;;
21833;SDS011;11079;51.092;3.458;2023-09-19T06:31:02;10.27;;;2.38;;
21833;SDS011;11079;51.092;3.458;2023-09-19T06:33:28;10.40;;;2.60;;
21833;SDS011;11079;51.092;3.458;2023-09-19T06:35:56;12.38;;;3.85;;
21833;SDS011;11079;51.092;3.458;2023-09-19T06:38:25;14.13;;;3.75;;
21833;SDS011;11079;51.092;3.458;2023-09-19T06:40:50;11.43;;;3.08;;
21833;SDS011;11079;51.092;3.458;2023-09-19T06:43:16;10.30;;;3.13;;
21833;SDS011;11079;51.092;3.458;2023-09-19T06:45:42;11.73;;;2.58;;
21833;SDS011;11079;51.092;3.458;2023-09-19T06:48:07;13.43;;;3.20;;
21833;SDS011;11079;51.092;3.458;2023-09-19T06:50:35;12.90;;;3.00;;
21833;SDS011;11079;51.092;3.458;2023-09-19T06:53:01;14.73;;;2.70;;
21833;SDS011;11079;51.092;3.458;2023-09-19T06:55:26;15.35;;;3.38;;
21833;SDS011;11079;51.092;3.458;2023-09-19T06:57:53;11.73;;;2.78;;
21833;SDS011;11079;51.092;3.458;2023-09-19T07:00:19;6.65;;;2.50;;
21833;SDS011;11079;51.092;3.458;2023-09-19T07:03:00;9.45;;;2.45;;
21833;SDS011;11079;51.092;3.458;2023-09-19T07:05:33;8.00;;;3.50;;
21833;SDS011;11079;51.092;3.458;2023-09-19T07:08:02;5.20;;;2.03;;
21833;SDS011;11079;51.092;3.458;2023-09-19T07:10:29;6.80;;;1.75;;
21833;SDS011;11079;51.092;3.458;2023-09-19T07:12:56;10.38;;;2.30;;
21833;SDS011;11079;51.092;3.458;2023-09-19T07:15:26;10.70;;;3.00;;
21833;SDS011;11079;51.092;3.458;2023-09-19T07:17:52;11.88;;;2.60;;
21833;SDS011;11079;51.092;3.458;2023-09-19T07:20:21;11.90;;;2.80;;
21833;SDS011;11079;51.092;3.458;2023-09-19T07:22:48;12.18;;;2.80;;
21833;SDS011;11079;51.092;3.458;2023-09-19T07:25:16;10.93;;;2.58;;
21833;SDS011;11079;51.092;3.458;2023-09-19T07:27:42;8.50;;;2.13;;
21833;SDS011;11079;51.092;3.458;2023-09-19T07:30:11;10.82;;;2.40;;
21833;SDS011;11079;51.092;3.458;2023-09-19T07:32:37;21.35;;;4.13;;
21833;SDS011;11079;51.092;3.458;2023-09-19T07:35:03;5.88;;;2.58;;
21833;SDS011;11079;51.092;3.458;2023-09-19T07:37:30;11.07;;;3.17;;
21833;SDS011;11079;51.092;3.458;2023-09-19T07:40:02;12.70;;;2.40;;
21833;SDS011;11079;51.092;3.458;2023-09-19T07:42:35;12.40;;;2.95;;
21833;SDS011;11079;51.092;3.458;2023-09-19T07:45:06;9.77;;;2.20;;
21833;SDS011;11079;51.092;3.458;2023-09-19T07:47:33;7.50;;;1.98;;
21833;SDS011;11079;51.092;3.458;2023-09-19T07:49:59;8.02;;;2.17;;
21833;SDS011;11079;51.092;3.458;2023-09-19T07:52:27;8.23;;;2.58;;
21833;SDS011;11079;51.092;3.458;2023-09-19T07:54:55;11.85;;;2.75;;
21833;SDS011;11079;51.092;3.458;2023-09-19T07:57:22;8.32;;;2.30;;
21833;SDS011;11079;51.092;3.458;2023-09-19T07:59:48;14.18;;;2.78;;
21833;SDS011;11079;51.092;3.458;2023-09-19T08:02:13;9.13;;;2.30;;
21833;SDS011;11079;51.092;3.458;2023-09-19T08:04:43;10.88;;;2.30;;
21833;SDS011;11079;51.092;3.458;2023-09-19T08:07:11;8.70;;;3.00;;
21833;SDS011;11079;51.092;3.458;2023-09-19T08:09:38;9.98;;;2.78;;
21833;SDS011;11079;51.092;3.458;2023-09-19T08:12:04;8.93;;;2.40;;
21833;SDS011;11079;51.092;3.458;2023-09-19T08:14:33;8.73;;;2.33;;
21833;SDS011;11079;51.092;3.458;2023-09-19T08:16:58;9.23;;;2.05;;
21833;SDS011;11079;51.092;3.458;2023-09-19T08:19:25;7.57;;;2.00;;
21833;SDS011;11079;51.092;3.458;2023-09-19T08:21:57;13.15;;;2.15;;
21833;SDS011;11079;51.092;3.458;2023-09-19T08:24:24;10.18;;;2.20;;
21833;SDS011;11079;51.092;3.458;2023-09-19T08:26:53;6.80;;;2.10;;
21833;SDS011;11079;51.092;3.458;2023-09-19T08:29:23;7.55;;;2.00;;
21833;SDS011;11079;51.092;3.458;2023-09-19T08:31:55;10.00;;;2.38;;
21833;SDS011;11079;51.092;3.458;2023-09-19T08:34:22;8.15;;;2.05;;
21833;SDS011;11079;51.092;3.458;2023-09-19T08:36:52;11.10;;;2.33;;
21833;SDS011;11079;51.092;3.458;2023-09-19T08:39:24;8.18;;;1.67;;
21833;SDS011;11079;51.092;3.458;2023-09-19T08:41:57;11.63;;;3.13;;
21833;SDS011;11079;51.092;3.458;2023-09-19T08:44:27;12.07;;;2.42;;
21833;SDS011;11079;51.092;3.458;2023-09-19T08:47:14;6.03;;;1.90;;
21833;SDS011;11079;51.092;3.458;2023-09-19T08:52:51;7.70;;;2.13;;
21833;SDS011;11079;51.092;3.458;2023-09-19T08:55:19;13.65;;;3.10;;
21833;SDS011;11079;51.092;3.458;2023-09-19T08:57:51;8.07;;;2.05;;
21833;SDS011;11079;51.092;3.458;2023-09-19T09:00:24;9.27;;;1.60;;
21833;SDS011;11079;51.092;3.458;2023-09-19T09:02:55;10.32;;;1.98;;
21833;SDS011;11079;51.092;3.458;2023-09-19T09:05:22;8.25;;;2.28;;
21833;SDS011;11079;51.092;3.458;2023-09-19T09:07:49;11.75;;;2.10;;
21833;SDS011;11079;51.092;3.458;2023-09-19T09:10:17;7.32;;;1.58;;
21833;SDS011;11079;51.092;3.458;2023-09-19T09:12:50;7.72;;;1.83;;
21833;SDS011;11079;51.092;3.458;2023-09-19T09:15:21;6.38;;;1.50;;
21833;SDS011;11079;51.092;3.458;2023-09-19T09:17:48;8.73;;;2.00;;
21833;SDS011;11079;51.092;3.458;2023-09-19T09:20:16;7.70;;;1.48;;
21833;SDS011;11079;51.092;3.458;2023-09-19T09:22:53;5.50;;;1.52;;
21833;SDS011;11079;51.092;3.458;2023-09-19T09:25:20;4.78;;;1.70;;
21833;SDS011;11079;51.092;3.458;2023-09-19T09:27:59;7.85;;;1.80;;
21833;SDS011;11079;51.092;3.458;2023-09-19T09:30:36;3.92;;;1.52;;
21833;SDS011;11079;51.092;3.458;2023-09-19T09:33:13;6.40;;;1.15;;
21833;SDS011;11079;51.092;3.458;2023-09-19T09:35:47;9.25;;;1.40;;
21833;SDS011;11079;51.092;3.458;2023-09-19T09:38:25;4.63;;;1.50;;
21833;SDS011;11079;51.092;3.458;2023-09-19T09:40:58;7.18;;;1.70;;
21833;SDS011;11079;51.092;3.458;2023-09-19T09:43:34;5.97;;;1.90;;
21833;SDS011;11079;51.092;3.458;2023-09-19T09:51:39;6.30;;;1.42;;
21833;SDS011;11079;51.092;3.458;2023-09-19T09:56:58;4.35;;;1.80;;
21833;SDS011;11079;51.092;3.458;2023-09-19T10:02:18;5.85;;;1.63;;
21833;SDS011;11079;51.092;3.458;2023-09-19T10:04:52;7.57;;;1.05;;
21833;SDS011;11079;51.092;3.458;2023-09-19T10:07:37;3.67;;;1.10;;
21833;SDS011;11079;51.092;3.458;2023-09-19T10:10:06;4.18;;;1.20;;
21833;SDS011;11079;51.092;3.458;2023-09-19T10:12:45;4.28;;;1.20;;
21833;SDS011;11079;51.092;3.458;2023-09-19T10:15:13;5.35;;;1.63;;
21833;SDS011;11079;51.092;3.458;2023-09-19T10:17:42;4.70;;;0.98;;
21833;SDS011;11079;51.092;3.458;2023-09-19T10:20:09;7.03;;;1.13;;
21833;SDS011;11079;51.092;3.458;2023-09-19T10:23:03;3.90;;;1.20;;
21833;SDS011;11079;51.092;3.458;2023-09-19T10:25:36;4.30;;;1.00;;
21833;SDS011;11079;51.092;3.458;2023-09-19T10:28:05;4.18;;;0.90;;
21833;SDS011;11079;51.092;3.458;2023-09-19T10:30:40;3.88;;;1.10;;
21833;SDS011;11079;51.092;3.458;2023-09-19T10:33:20;4.43;;;0.90;;
21833;SDS011;11079;51.092;3.458;2023-09-19T10:35:55;3.10;;;1.05;;
21833;SDS011;11079;51.092;3.458;2023-09-19T10:38:25;6.75;;;1.27;;
21833;SDS011;11079;51.092;3.458;2023-09-19T10:40:53;5.40;;;0.98;;
21833;SDS011;11079;51.092;3.458;2023-09-19T10:43:29;5.28;;;0.85;;
21833;SDS011;11079;51.092;3.458;2023-09-19T10:45:57;4.43;;;1.10;;
21833;SDS011;11079;51.092;3.458;2023-09-19T10:48:26;3.40;;;0.95;;
21833;SDS011;11079;51.092;3.458;2023-09-19T10:53:24;6.65;;;1.10;;
21833;SDS011;11079;51.092;3.458;2023-09-19T10:55:55;4.60;;;0.98;;
21833;SDS011;11079;51.092;3.458;2023-09-19T10:58:28;4.55;;;1.45;;
21833;SDS011;11079;51.092;3.458;2023-09-19T11:00:59;5.88;;;1.02;;
21833;SDS011;11079;51.092;3.458;2023-09-19T11:03:33;3.67;;;0.93;;
21833;SDS011;11079;51.092;3.458;2023-09-19T11:06:06;3.83;;;0.80;;
21833;SDS011;11079;51.092;3.458;2023-09-19T11:11:46;5.80;;;1.10;;
21833;SDS011;11079;51.092;3.458;2023-09-19T11:30:36;3.88;;;1.40;;
21833;SDS011;11079;51.092;3.458;2023-09-19T11:33:16;6.28;;;1.20;;
21833;SDS011;11079;51.092;3.458;2023-09-19T11:36:04;5.22;;;1.58;;
21833;SDS011;11079;51.092;3.458;2023-09-19T11:43:46;3.20;;;1.25;;
21833;SDS011;11079;51.092;3.458;2023-09-19T11:46:12;5.13;;;1.15;;
21833;SDS011;11079;51.092;3.458;2023-09-19T11:48:41;3.85;;;1.38;;
21833;SDS011;11079;51.092;3.458;2023-09-19T11:51:13;4.95;;;1.20;;
21833;SDS011;11079;51.092;3.458;2023-09-19T11:53:44;2.63;;;1.10;;
21833;SDS011;11079;51.092;3.458;2023-09-19T11:56:13;5.45;;;1.60;;
21833;SDS011;11079;51.092;3.458;2023-09-19T11:58:46;7.05;;;1.38;;
21833;SDS011;11079;51.092;3.458;2023-09-19T12:01:16;7.13;;;1.48;;
21833;SDS011;11079;51.092;3.458;2023-09-19T12:04:00;5.90;;;1.65;;
21833;SDS011;11079;51.092;3.458;2023-09-19T12:06:27;6.18;;;1.70;;
21833;SDS011;11079;51.092;3.458;2023-09-19T12:09:19;5.90;;;2.17;;
21833;SDS011;11079;51.092;3.458;2023-09-19T12:11:45;5.35;;;1.35;;
21833;SDS011;11079;51.092;3.458;2023-09-19T12:14:11;7.22;;;1.30;;
21833;SDS011;11079;51.092;3.458;2023-09-19T12:16:50;5.82;;;1.90;;
21833;SDS011;11079;51.092;3.458;2023-09-19T12:19:20;4.72;;;1.42;;
21833;SDS011;11079;51.092;3.458;2023-09-19T12:21:54;5.75;;;1.58;;
21833;SDS011;11079;51.092;3.458;2023-09-19T12:24:40;7.47;;;1.58;;
21833;SDS011;11079;51.092;3.458;2023-09-19T12:27:09;6.00;;;2.20;;
21833;SDS011;11079;51.092;3.458;2023-09-19T12:29:46;5.38;;;1.40;;
21833;SDS011;11079;51.092;3.458;2023-09-19T12:32:38;7.55;;;1.75;;
21833;SDS011;11079;51.092;3.458;2023-09-19T12:35:26;2.20;;;1.13;;
21833;SDS011;11079;51.092;3.458;2023-09-19T12:37:54;6.72;;;1.50;;
21833;SDS011;11079;51.092;3.458;2023-09-19T12:40:20;6.90;;;1.98;;
21833;SDS011;11079;51.092;3.458;2023-09-19T12:42:59;7.28;;;1.55;;
21833;SDS011;11079;51.092;3.458;2023-09-19T12:46:07;4.75;;;1.80;;
21833;SDS011;11079;51.092;3.458;2023-09-19T12:48:35;5.25;;;1.73;;
21833;SDS011;11079;51.092;3.458;2023-09-19T12:51:11;9.30;;;2.33;;
21833;SDS011;11079;51.092;3.458;2023-09-19T12:54:02;5.22;;;1.77;;
21833;SDS011;11079;51.092;3.458;2023-09-19T12:56:44;4.75;;;1.50;;
21833;SDS011;11079;51.092;3.458;2023-09-19T12:59:13;7.18;;;1.77;;
21833;SDS011;11079;51.092;3.458;2023-09-19T13:01:40;4.47;;;1.55;;
21833;SDS011;11079;51.092;3.458;2023-09-19T13:04:18;5.20;;;1.85;;
21833;SDS011;11079;51.092;3.458;2023-09-19T13:06:45;5.65;;;1.40;;
21833;SDS011;11079;51.092;3.458;2023-09-19T13:09:16;4.90;;;1.27;;
21833;SDS011;11079;51.092;3.458;2023-09-19T13:11:45;6.72;;;1.60;;
21833;SDS011;11079;51.092;3.458;2023-09-19T13:14:14;6.90;;;1.75;;
21833;SDS011;11079;51.092;3.458;2023-09-19T13:22:00;4.53;;;1.30;;
21833;SDS011;11079;51.092;3.458;2023-09-19T13:24:29;4.07;;;1.33;;
21833;SDS011;11079;51.092;3.458;2023-09-19T13:26:57;5.40;;;1.48;;
21833;SDS011;11079;51.092;3.458;2023-09-19T13:29:25;5.15;;;1.88;;
21833;SDS011;11079;51.092;3.458;2023-09-19T13:31:51;6.80;;;2.00;;
21833;SDS011;11079;51.092;3.458;2023-09-19T13:34:19;8.05;;;2.20;;
21833;SDS011;11079;51.092;3.458;2023-09-19T13:36:45;7.07;;;2.60;;
21833;SDS011;11079;51.092;3.458;2023-09-19T13:39:15;4.30;;;1.88;;
21833;SDS011;11079;51.092;3.458;2023-09-19T13:41:43;4.28;;;1.95;;
21833;SDS011;11079;51.092;3.458;2023-09-19T13:44:11;4.57;;;1.60;;
21833;SDS011;11079;51.092;3.458;2023-09-19T13:46:37;7.70;;;1.90;;
21833;SDS011;11079;51.092;3.458;2023-09-19T13:49:03;6.53;;;1.77;;
21833;SDS011;11079;51.092;3.458;2023-09-19T13:51:30;7.72;;;2.00;;
21833;SDS011;11079;51.092;3.458;2023-09-19T13:53:56;5.65;;;1.55;;
21833;SDS011;11079;51.092;3.458;2023-09-19T13:56:22;10.25;;;2.40;;
21833;SDS011;11079;51.092;3.458;2023-09-19T13:58:49;6.65;;;2.05;;
21833;SDS011;11079;51.092;3.458;2023-09-19T14:01:14;5.20;;;1.67;;
21833;SDS011;11079;51.092;3.458;2023-09-19T14:03:40;5.45;;;1.65;;
21833;SDS011;11079;51.092;3.458;2023-09-19T14:06:12;6.10;;;1.77;;
21833;SDS011;11079;51.092;3.458;2023-09-19T14:08:38;7.63;;;1.95;;
21833;SDS011;11079;51.092;3.458;2023-09-19T14:11:07;7.50;;;1.70;;
21833;SDS011;11079;51.092;3.458;2023-09-19T14:13:33;7.35;;;1.90;;
21833;SDS011;11079;51.092;3.458;2023-09-19T14:16:06;4.78;;;1.40;;
21833;SDS011;11079;51.092;3.458;2023-09-19T14:18:35;5.88;;;1.60;;
21833;SDS011;11079;51.092;3.458;2023-09-19T14:21:10;4.95;;;2.10;;
21833;SDS011;11079;51.092;3.458;2023-09-19T14:23:44;5.63;;;1.95;;
21833;SDS011;11079;51.092;3.458;2023-09-19T14:26:10;6.18;;;1.52;;
21833;SDS011;11079;51.092;3.458;2023-09-19T14:28:36;6.50;;;1.73;;
21833;SDS011;11079;51.092;3.458;2023-09-19T14:31:09;5.95;;;1.88;;
21833;SDS011;11079;51.092;3.458;2023-09-19T14:33:43;6.07;;;1.90;;
21833;SDS011;11079;51.092;3.458;2023-09-19T14:36:18;7.43;;;2.42;;
21833;SDS011;11079;51.092;3.458;2023-09-19T14:38:44;7.10;;;2.75;;
21833;SDS011;11079;51.092;3.458;2023-09-19T14:41:09;4.65;;;1.65;;
21833;SDS011;11079;51.092;3.458;2023-09-19T14:43:38;16.77;;;3.45;;
21833;SDS011;11079;51.092;3.458;2023-09-19T14:46:11;5.47;;;2.03;;
21833;SDS011;11079;51.092;3.458;2023-09-19T14:48:53;5.95;;;2.05;;
21833;SDS011;11079;51.092;3.458;2023-09-19T14:51:22;8.30;;;2.22;;
21833;SDS011;11079;51.092;3.458;2023-09-19T14:53:47;9.85;;;2.10;;
21833;SDS011;11079;51.092;3.458;2023-09-19T14:56:14;8.15;;;2.33;;
21833;SDS011;11079;51.092;3.458;2023-09-19T14:59:01;5.80;;;2.05;;
21833;SDS011;11079;51.092;3.458;2023-09-19T15:01:31;7.22;;;3.08;;
21833;SDS011;11079;51.092;3.458;2023-09-19T15:04:15;9.88;;;2.35;;
21833;SDS011;11079;51.092;3.458;2023-09-19T15:07:08;9.07;;;2.38;;
21833;SDS011;11079;51.092;3.458;2023-09-19T15:10:03;8.18;;;2.08;;
21833;SDS011;11079;51.092;3.458;2023-09-19T15:12:38;11.25;;;2.47;;
21833;SDS011;11079;51.092;3.458;2023-09-19T15:15:06;7.82;;;2.42;;
21833;SDS011;11079;51.092;3.458;2023-09-19T15:17:37;6.80;;;2.17;;
21833;SDS011;11079;51.092;3.458;2023-09-19T15:20:05;8.23;;;2.50;;
21833;SDS011;11079;51.092;3.458;2023-09-19T15:22:33;7.68;;;2.20;;
21833;SDS011;11079;51.092;3.458;2023-09-19T15:25:00;8.63;;;2.60;;
21833;SDS011;11079;51.092;3.458;2023-09-19T15:27:29;7.15;;;2.53;;
21833;SDS011;11079;51.092;3.458;2023-09-19T15:29:56;5.00;;;2.50;;
21833;SDS011;11079;51.092;3.458;2023-09-19T15:32:23;7.63;;;2.47;;
21833;SDS011;11079;51.092;3.458;2023-09-19T15:34:49;7.63;;;2.15;;
21833;SDS011;11079;51.092;3.458;2023-09-19T15:37:16;7.88;;;2.47;;
21833;SDS011;11079;51.092;3.458;2023-09-19T15:39:42;6.75;;;2.50;;
21833;SDS011;11079;51.092;3.458;2023-09-19T15:42:10;7.43;;;2.42;;
21833;SDS011;11079;51.092;3.458;2023-09-19T15:44:36;7.57;;;2.88;;
21833;SDS011;11079;51.092;3.458;2023-09-19T15:47:04;9.77;;;2.80;;
21833;SDS011;11079;51.092;3.458;2023-09-19T15:52:31;6.80;;;2.30;;
21833;SDS011;11079;51.092;3.458;2023-09-19T15:54:57;8.63;;;2.80;;
21833;SDS011;11079;51.092;3.458;2023-09-19T15:57:22;10.07;;;2.53;;
21833;SDS011;11079;51.092;3.458;2023-09-19T15:59:49;11.80;;;2.90;;
21833;SDS011;11079;51.092;3.458;2023-09-19T16:02:15;8.00;;;3.15;;
21833;SDS011;11079;51.092;3.458;2023-09-19T16:04:42;7.82;;;2.60;;
21833;SDS011;11079;51.092;3.458;2023-09-19T16:07:08;13.55;;;3.08;;
21833;SDS011;11079;51.092;3.458;2023-09-19T16:09:34;8.15;;;2.97;;
21833;SDS011;11079;51.092;3.458;2023-09-19T16:12:00;6.95;;;2.78;;